Newtonhill, United Kingdom
Current Conditions -  °F | °C
As of 7:50 AM on Tuesday 21 Oct 2014 (Local Time) from EGPD Reporting Station
Light Rain Light Rain  
Wind Chill: 38°   Ceiling: 4000
Heat Index: 46°   Visibility: 6mi
Dew Point: 45°   Wind: 25mph
Humidity: 93%   Direction: 300°WNW
Pressure: 29"   Gusts: NA
Location:  57.03°N, 2.15°W
Report Text: EGPD 210650Z 30022KT 9999 -RA FEW012 SCT017 BKN040 08/07 Q0982 RERA TEMPO RA
Loading
Personal Weather Stations






























Interactive Weather Map
Tropical Storm Tracking
New forecast layout! Learn more

10-Day Weather Forecast

Advertisements
Track Severe Weather on mobile